sensor_id;sensor_type;location;lat;lon;timestamp;temperature;humidity
70271;SHT31;57680;54.292;18.598;2023-09-30T00:01:12;17.85;93.04
70271;SHT31;57680;54.292;18.598;2023-09-30T00:03:37;17.89;93.02
70271;SHT31;57680;54.292;18.598;2023-09-30T00:06:03;17.87;92.77
70271;SHT31;57680;54.292;18.598;2023-09-30T00:08:28;17.93;92.59
70271;SHT31;57680;54.292;18.598;2023-09-30T00:10:54;17.93;92.47
70271;SHT31;57680;54.292;18.598;2023-09-30T00:13:19;17.90;92.49
70271;SHT31;57680;54.292;18.598;2023-09-30T00:15:44;17.89;92.68
70271;SHT31;57680;54.292;18.598;2023-09-30T00:18:10;17.83;93.14
70271;SHT31;57680;54.292;18.598;2023-09-30T00:20:35;17.76;93.38
70271;SHT31;57680;54.292;18.598;2023-09-30T00:23:00;17.71;93.46
70271;SHT31;57680;54.292;18.598;2023-09-30T00:25:25;17.66;93.14
70271;SHT31;57680;54.292;18.598;2023-09-30T00:27:51;17.66;93.08
70271;SHT31;57680;54.292;18.598;2023-09-30T00:30:16;17.71;92.97
70271;SHT31;57680;54.292;18.598;2023-09-30T00:32:41;17.63;92.71
70271;SHT31;57680;54.292;18.598;2023-09-30T00:35:07;17.65;92.73
70271;SHT31;57680;54.292;18.598;2023-09-30T00:37:33;17.65;92.65
70271;SHT31;57680;54.292;18.598;2023-09-30T00:39:58;17.62;92.52
70271;SHT31;57680;54.292;18.598;2023-09-30T00:42:23;17.66;92.43
70271;SHT31;57680;54.292;18.598;2023-09-30T00:44:49;17.72;92.00
70271;SHT31;57680;54.292;18.598;2023-09-30T00:47:14;17.76;91.57
70271;SHT31;57680;54.292;18.598;2023-09-30T00:49:39;17.82;91.33
70271;SHT31;57680;54.292;18.598;2023-09-30T00:52:05;17.85;91.23
70271;SHT31;57680;54.292;18.598;2023-09-30T00:54:30;17.90;90.85
70271;SHT31;57680;54.292;18.598;2023-09-30T00:56:56;17.90;90.66
70271;SHT31;57680;54.292;18.598;2023-09-30T00:59:22;18.00;90.20
70271;SHT31;57680;54.292;18.598;2023-09-30T01:01:48;18.04;90.22
70271;SHT31;57680;54.292;18.598;2023-09-30T01:04:14;18.06;90.16
70271;SHT31;57680;54.292;18.598;2023-09-30T01:06:40;18.07;89.95
70271;SHT31;57680;54.292;18.598;2023-09-30T01:09:05;18.07;89.85
70271;SHT31;57680;54.292;18.598;2023-09-30T01:11:30;18.02;89.87
70271;SHT31;57680;54.292;18.598;2023-09-30T01:13:56;18.06;89.76
70271;SHT31;57680;54.292;18.598;2023-09-30T01:16:21;18.06;89.88
70271;SHT31;57680;54.292;18.598;2023-09-30T01:18:47;18.00;89.88
70271;SHT31;57680;54.292;18.598;2023-09-30T01:21:12;17.99;89.86
70271;SHT31;57680;54.292;18.598;2023-09-30T01:23:38;18.06;89.73
70271;SHT31;57680;54.292;18.598;2023-09-30T01:26:10;18.04;89.79
70271;SHT31;57680;54.292;18.598;2023-09-30T01:28:36;17.97;90.01
70271;SHT31;57680;54.292;18.598;2023-09-30T01:31:01;17.93;90.30
70271;SHT31;57680;54.292;18.598;2023-09-30T01:33:27;17.87;90.49
70271;SHT31;57680;54.292;18.598;2023-09-30T01:35:52;17.86;90.52
70271;SHT31;57680;54.292;18.598;2023-09-30T01:38:17;17.79;90.79
70271;SHT31;57680;54.292;18.598;2023-09-30T01:40:42;17.76;90.98
70271;SHT31;57680;54.292;18.598;2023-09-30T01:43:08;17.72;91.40
70271;SHT31;57680;54.292;18.598;2023-09-30T01:45:33;17.72;91.27
70271;SHT31;57680;54.292;18.598;2023-09-30T01:47:58;17.72;91.36
70271;SHT31;57680;54.292;18.598;2023-09-30T01:50:24;17.72;91.60
70271;SHT31;57680;54.292;18.598;2023-09-30T01:52:49;17.78;91.58
70271;SHT31;57680;54.292;18.598;2023-09-30T01:55:14;17.78;91.58
70271;SHT31;57680;54.292;18.598;2023-09-30T01:57:39;17.82;91.55
70271;SHT31;57680;54.292;18.598;2023-09-30T02:00:05;17.79;91.81
70271;SHT31;57680;54.292;18.598;2023-09-30T02:02:31;17.81;91.72
70271;SHT31;57680;54.292;18.598;2023-09-30T02:04:56;17.82;91.71
70271;SHT31;57680;54.292;18.598;2023-09-30T02:07:21;17.85;91.75
70271;SHT31;57680;54.292;18.598;2023-09-30T02:09:47;17.83;91.80
70271;SHT31;57680;54.292;18.598;2023-09-30T02:12:12;17.86;91.79
70271;SHT31;57680;54.292;18.598;2023-09-30T02:14:38;17.86;91.94
70271;SHT31;57680;54.292;18.598;2023-09-30T02:17:03;17.86;92.01
70271;SHT31;57680;54.292;18.598;2023-09-30T02:19:28;17.87;91.91
70271;SHT31;57680;54.292;18.598;2023-09-30T02:21:54;17.90;91.84
70271;SHT31;57680;54.292;18.598;2023-09-30T02:24:19;17.87;92.07
70271;SHT31;57680;54.292;18.598;2023-09-30T02:26:44;17.93;91.84
70271;SHT31;57680;54.292;18.598;2023-09-30T02:29:09;17.85;92.04
70271;SHT31;57680;54.292;18.598;2023-09-30T02:31:35;17.92;91.92
70271;SHT31;57680;54.292;18.598;2023-09-30T02:34:00;17.85;92.01
70271;SHT31;57680;54.292;18.598;2023-09-30T02:36:25;17.83;92.12
70271;SHT31;57680;54.292;18.598;2023-09-30T02:38:50;17.81;92.36
70271;SHT31;57680;54.292;18.598;2023-09-30T02:41:16;17.90;92.03
70271;SHT31;57680;54.292;18.598;2023-09-30T02:43:41;17.89;92.21
70271;SHT31;57680;54.292;18.598;2023-09-30T02:46:06;17.90;92.22
70271;SHT31;57680;54.292;18.598;2023-09-30T02:48:32;18.02;91.99
70271;SHT31;57680;54.292;18.598;2023-09-30T02:50:57;17.96;92.17
70271;SHT31;57680;54.292;18.598;2023-09-30T02:53:22;18.00;92.37
70271;SHT31;57680;54.292;18.598;2023-09-30T02:55:47;17.99;92.54
70271;SHT31;57680;54.292;18.598;2023-09-30T02:58:13;17.97;92.52
70271;SHT31;57680;54.292;18.598;2023-09-30T03:00:38;17.97;92.68
70271;SHT31;57680;54.292;18.598;2023-09-30T03:03:04;18.00;92.52
70271;SHT31;57680;54.292;18.598;2023-09-30T03:05:30;18.04;92.40
70271;SHT31;57680;54.292;18.598;2023-09-30T03:07:56;18.13;92.07
70271;SHT31;57680;54.292;18.598;2023-09-30T03:10:21;18.12;92.13
70271;SHT31;57680;54.292;18.598;2023-09-30T03:12:47;18.13;91.92
70271;SHT31;57680;54.292;18.598;2023-09-30T03:15:13;18.10;91.96
70271;SHT31;57680;54.292;18.598;2023-09-30T03:17:38;18.13;91.64
70271;SHT31;57680;54.292;18.598;2023-09-30T03:20:04;18.09;91.83
70271;SHT31;57680;54.292;18.598;2023-09-30T03:22:29;18.06;91.82
70271;SHT31;57680;54.292;18.598;2023-09-30T03:24:55;18.10;91.80
70271;SHT31;57680;54.292;18.598;2023-09-30T03:27:20;18.09;91.55
70271;SHT31;57680;54.292;18.598;2023-09-30T03:29:46;18.04;91.77
70271;SHT31;57680;54.292;18.598;2023-09-30T03:32:11;18.03;91.94
70271;SHT31;57680;54.292;18.598;2023-09-30T03:34:36;18.12;91.62
70271;SHT31;57680;54.292;18.598;2023-09-30T03:37:02;18.03;91.75
70271;SHT31;57680;54.292;18.598;2023-09-30T03:39:28;18.02;92.00
70271;SHT31;57680;54.292;18.598;2023-09-30T03:41:54;17.99;92.05
70271;SHT31;57680;54.292;18.598;2023-09-30T03:44:20;18.00;91.98
70271;SHT31;57680;54.292;18.598;2023-09-30T03:46:45;18.13;91.80
70271;SHT31;57680;54.292;18.598;2023-09-30T03:49:10;18.06;91.18
70271;SHT31;57680;54.292;18.598;2023-09-30T03:51:35;17.94;91.36
70271;SHT31;57680;54.292;18.598;2023-09-30T03:54:01;17.78;90.00
70271;SHT31;57680;54.292;18.598;2023-09-30T03:56:26;17.51;90.09
70271;SHT31;57680;54.292;18.598;2023-09-30T03:58:51;17.32;89.96
70271;SHT31;57680;54.292;18.598;2023-09-30T04:01:16;17.21;89.98
70271;SHT31;57680;54.292;18.598;2023-09-30T04:03:42;17.10;90.64
70271;SHT31;57680;54.292;18.598;2023-09-30T04:06:07;17.07;90.66
70271;SHT31;57680;54.292;18.598;2023-09-30T04:08:33;17.00;90.65
70271;SHT31;57680;54.292;18.598;2023-09-30T04:10:59;16.93;90.40
70271;SHT31;57680;54.292;18.598;2023-09-30T04:13:25;16.84;90.77
70271;SHT31;57680;54.292;18.598;2023-09-30T04:15:50;16.81;90.55
70271;SHT31;57680;54.292;18.598;2023-09-30T04:18:15;16.73;90.62
70271;SHT31;57680;54.292;18.598;2023-09-30T04:20:40;16.69;90.47
70271;SHT31;57680;54.292;18.598;2023-09-30T04:23:07;16.64;90.17
70271;SHT31;57680;54.292;18.598;2023-09-30T04:25:32;16.57;89.28
70271;SHT31;57680;54.292;18.598;2023-09-30T04:27:58;16.59;88.53
70271;SHT31;57680;54.292;18.598;2023-09-30T04:30:23;16.57;88.69
70271;SHT31;57680;54.292;18.598;2023-09-30T04:32:48;16.48;88.59
70271;SHT31;57680;54.292;18.598;2023-09-30T04:35:13;16.39;88.74
70271;SHT31;57680;54.292;18.598;2023-09-30T04:37:39;16.33;88.10
70271;SHT31;57680;54.292;18.598;2023-09-30T04:40:07;16.22;87.62
70271;SHT31;57680;54.292;18.598;2023-09-30T04:42:35;16.18;87.49
70271;SHT31;57680;54.292;18.598;2023-09-30T04:45:01;16.15;87.01
70271;SHT31;57680;54.292;18.598;2023-09-30T04:47:26;16.15;86.57
70271;SHT31;57680;54.292;18.598;2023-09-30T04:49:52;16.16;86.53
70271;SHT31;57680;54.292;18.598;2023-09-30T04:52:17;16.13;86.45
70271;SHT31;57680;54.292;18.598;2023-09-30T04:54:42;16.11;85.58
70271;SHT31;57680;54.292;18.598;2023-09-30T04:57:07;16.06;85.13
70271;SHT31;57680;54.292;18.598;2023-09-30T04:59:33;16.08;85.26
70271;SHT31;57680;54.292;18.598;2023-09-30T05:01:58;16.05;85.52
70271;SHT31;57680;54.292;18.598;2023-09-30T05:04:23;15.97;84.56
70271;SHT31;57680;54.292;18.598;2023-09-30T05:06:49;15.95;84.25
70271;SHT31;57680;54.292;18.598;2023-09-30T05:09:14;15.95;84.12
70271;SHT31;57680;54.292;18.598;2023-09-30T05:11:39;15.87;84.45
70271;SHT31;57680;54.292;18.598;2023-09-30T05:14:05;15.78;84.75
70271;SHT31;57680;54.292;18.598;2023-09-30T05:16:30;15.73;84.40
70271;SHT31;57680;54.292;18.598;2023-09-30T05:18:56;15.75;84.32
70271;SHT31;57680;54.292;18.598;2023-09-30T05:21:21;15.71;84.50
70271;SHT31;57680;54.292;18.598;2023-09-30T05:23:46;15.70;84.42
70271;SHT31;57680;54.292;18.598;2023-09-30T05:26:11;15.68;84.54
70271;SHT31;57680;54.292;18.598;2023-09-30T05:28:37;15.67;84.26
70271;SHT31;57680;54.292;18.598;2023-09-30T05:31:02;15.68;84.37
70271;SHT31;57680;54.292;18.598;2023-09-30T05:33:27;15.64;84.25
70271;SHT31;57680;54.292;18.598;2023-09-30T05:35:52;15.61;83.98
70271;SHT31;57680;54.292;18.598;2023-09-30T05:38:18;15.63;83.66
70271;SHT31;57680;54.292;18.598;2023-09-30T05:40:43;15.65;83.34
70271;SHT31;57680;54.292;18.598;2023-09-30T05:43:08;15.68;82.31
70271;SHT31;57680;54.292;18.598;2023-09-30T05:45:33;15.73;82.01
70271;SHT31;57680;54.292;18.598;2023-09-30T05:47:59;15.94;81.75
70271;SHT31;57680;54.292;18.598;2023-09-30T05:50:24;16.06;80.85
70271;SHT31;57680;54.292;18.598;2023-09-30T05:52:50;16.19;80.62
70271;SHT31;57680;54.292;18.598;2023-09-30T05:55:16;16.29;80.33
70271;SHT31;57680;54.292;18.598;2023-09-30T05:57:42;16.30;79.53
70271;SHT31;57680;54.292;18.598;2023-09-30T06:00:07;16.45;79.21
70271;SHT31;57680;54.292;18.598;2023-09-30T06:02:36;16.56;79.27
70271;SHT31;57680;54.292;18.598;2023-09-30T06:05:01;16.67;79.09
70271;SHT31;57680;54.292;18.598;2023-09-30T06:07:26;16.80;77.69
70271;SHT31;57680;54.292;18.598;2023-09-30T06:09:52;16.84;77.83
70271;SHT31;57680;54.292;18.598;2023-09-30T06:12:17;16.85;77.83
70271;SHT31;57680;54.292;18.598;2023-09-30T06:14:42;16.77;78.24
70271;SHT31;57680;54.292;18.598;2023-09-30T06:17:07;16.81;78.12
70271;SHT31;57680;54.292;18.598;2023-09-30T06:19:33;16.90;78.02
70271;SHT31;57680;54.292;18.598;2023-09-30T06:21:58;16.90;77.68
70271;SHT31;57680;54.292;18.598;2023-09-30T06:24:24;16.87;77.18
70271;SHT31;57680;54.292;18.598;2023-09-30T06:26:49;16.95;76.61
70271;SHT31;57680;54.292;18.598;2023-09-30T06:29:15;16.97;77.01
70271;SHT31;57680;54.292;18.598;2023-09-30T06:31:40;16.91;77.27
70271;SHT31;57680;54.292;18.598;2023-09-30T06:34:05;16.93;76.98
70271;SHT31;57680;54.292;18.598;2023-09-30T06:36:30;16.87;76.44
70271;SHT31;57680;54.292;18.598;2023-09-30T06:38:56;17.04;76.43
70271;SHT31;57680;54.292;18.598;2023-09-30T06:41:21;17.07;75.55
70271;SHT31;57680;54.292;18.598;2023-09-30T06:43:46;17.10;75.59
70271;SHT31;57680;54.292;18.598;2023-09-30T06:46:12;17.08;75.41
70271;SHT31;57680;54.292;18.598;2023-09-30T06:48:37;17.01;75.41
70271;SHT31;57680;54.292;18.598;2023-09-30T06:51:03;17.15;74.66
70271;SHT31;57680;54.292;18.598;2023-09-30T06:53:28;17.20;75.12
70271;SHT31;57680;54.292;18.598;2023-09-30T06:55:53;17.15;74.55
70271;SHT31;57680;54.292;18.598;2023-09-30T06:58:19;17.18;74.55
70271;SHT31;57680;54.292;18.598;2023-09-30T07:00:44;17.27;75.17
70271;SHT31;57680;54.292;18.598;2023-09-30T07:03:09;17.21;73.23
70271;SHT31;57680;54.292;18.598;2023-09-30T07:05:39;17.11;73.71
70271;SHT31;57680;54.292;18.598;2023-09-30T07:08:05;17.01;73.06
70271;SHT31;57680;54.292;18.598;2023-09-30T07:10:30;17.25;73.96
70271;SHT31;57680;54.292;18.598;2023-09-30T07:12:55;17.28;72.70
70271;SHT31;57680;54.292;18.598;2023-09-30T07:15:21;17.35;72.76
70271;SHT31;57680;54.292;18.598;2023-09-30T07:17:46;17.45;72.81
70271;SHT31;57680;54.292;18.598;2023-09-30T07:20:11;17.62;72.52
70271;SHT31;57680;54.292;18.598;2023-09-30T07:22:37;17.68;72.03
70271;SHT31;57680;54.292;18.598;2023-09-30T07:25:02;17.71;71.66
70271;SHT31;57680;54.292;18.598;2023-09-30T07:27:28;17.65;71.48
70271;SHT31;57680;54.292;18.598;2023-09-30T07:29:53;17.65;72.41
70271;SHT31;57680;54.292;18.598;2023-09-30T07:32:18;17.85;72.74
70271;SHT31;57680;54.292;18.598;2023-09-30T07:34:44;17.71;71.00
70271;SHT31;57680;54.292;18.598;2023-09-30T07:37:09;17.62;71.56
70271;SHT31;57680;54.292;18.598;2023-09-30T07:39:35;17.48;72.82
70271;SHT31;57680;54.292;18.598;2023-09-30T07:42:00;17.48;73.06
70271;SHT31;57680;54.292;18.598;2023-09-30T07:44:25;17.41;73.17
70271;SHT31;57680;54.292;18.598;2023-09-30T07:46:51;17.56;72.97
70271;SHT31;57680;54.292;18.598;2023-09-30T07:49:16;17.65;73.24
70271;SHT31;57680;54.292;18.598;2023-09-30T07:51:41;17.86;71.40
70271;SHT31;57680;54.292;18.598;2023-09-30T07:54:06;18.29;72.31
70271;SHT31;57680;54.292;18.598;2023-09-30T07:56:32;18.55;71.41
70271;SHT31;57680;54.292;18.598;2023-09-30T07:58:57;18.33;70.54
70271;SHT31;57680;54.292;18.598;2023-09-30T08:01:22;17.89;71.83
70271;SHT31;57680;54.292;18.598;2023-09-30T08:03:48;17.52;73.49
70271;SHT31;57680;54.292;18.598;2023-09-30T08:06:13;17.22;74.33
70271;SHT31;57680;54.292;18.598;2023-09-30T08:08:39;17.31;73.93
70271;SHT31;57680;54.292;18.598;2023-09-30T08:11:05;17.72;73.60
70271;SHT31;57680;54.292;18.598;2023-09-30T08:13:32;18.07;71.36
70271;SHT31;57680;54.292;18.598;2023-09-30T08:15:57;17.97;71.22
70271;SHT31;57680;54.292;18.598;2023-09-30T08:18:22;18.16;69.11
70271;SHT31;57680;54.292;18.598;2023-09-30T08:20:48;18.24;69.01
70271;SHT31;57680;54.292;18.598;2023-09-30T08:23:13;18.40;68.61
70271;SHT31;57680;54.292;18.598;2023-09-30T08:25:38;18.69;68.19
70271;SHT31;57680;54.292;18.598;2023-09-30T08:28:04;18.62;66.61
70271;SHT31;57680;54.292;18.598;2023-09-30T08:30:30;18.94;66.65
70271;SHT31;57680;54.292;18.598;2023-09-30T08:32:55;18.79;65.22
70271;SHT31;57680;54.292;18.598;2023-09-30T08:35:20;17.96;65.73
70271;SHT31;57680;54.292;18.598;2023-09-30T08:37:45;17.90;66.96
70271;SHT31;57680;54.292;18.598;2023-09-30T08:40:11;17.69;67.82
70271;SHT31;57680;54.292;18.598;2023-09-30T08:42:38;17.61;66.67
70271;SHT31;57680;54.292;18.598;2023-09-30T08:45:04;17.83;67.99
70271;SHT31;57680;54.292;18.598;2023-09-30T08:47:30;18.00;69.09
70271;SHT31;57680;54.292;18.598;2023-09-30T08:49:56;18.20;67.30
70271;SHT31;57680;54.292;18.598;2023-09-30T08:52:24;17.96;67.00
70271;SHT31;57680;54.292;18.598;2023-09-30T08:54:49;18.54;66.73
70271;SHT31;57680;54.292;18.598;2023-09-30T08:57:18;18.79;65.53
70271;SHT31;57680;54.292;18.598;2023-09-30T08:59:44;19.09;64.04
70271;SHT31;57680;54.292;18.598;2023-09-30T09:02:11;19.30;64.47
70271;SHT31;57680;54.292;18.598;2023-09-30T09:04:37;19.43;62.48
70271;SHT31;57680;54.292;18.598;2023-09-30T09:07:02;19.06;62.84
70271;SHT31;57680;54.292;18.598;2023-09-30T09:09:27;18.92;64.11
70271;SHT31;57680;54.292;18.598;2023-09-30T09:11:53;18.69;65.58
70271;SHT31;57680;54.292;18.598;2023-09-30T09:14:18;18.51;65.26
70271;SHT31;57680;54.292;18.598;2023-09-30T09:16:56;19.18;65.82
70271;SHT31;57680;54.292;18.598;2023-09-30T09:19:21;19.33;65.17
70271;SHT31;57680;54.292;18.598;2023-09-30T09:21:59;19.54;62.80
70271;SHT31;57680;54.292;18.598;2023-09-30T09:27:07;19.95;61.51
70271;SHT31;57680;54.292;18.598;2023-09-30T09:29:33;19.95;62.19
70271;SHT31;57680;54.292;18.598;2023-09-30T09:32:11;20.48;61.70
70271;SHT31;57680;54.292;18.598;2023-09-30T09:34:40;20.32;59.65
70271;SHT31;57680;54.292;18.598;2023-09-30T09:37:13;20.28;59.70
70271;SHT31;57680;54.292;18.598;2023-09-30T09:39:39;19.75;60.64
70271;SHT31;57680;54.292;18.598;2023-09-30T09:42:05;19.34;62.02
70271;SHT31;57680;54.292;18.598;2023-09-30T09:44:30;18.92;63.19
70271;SHT31;57680;54.292;18.598;2023-09-30T09:46:57;19.39;62.40
70271;SHT31;57680;54.292;18.598;2023-09-30T09:49:24;19.51;61.99
70271;SHT31;57680;54.292;18.598;2023-09-30T09:51:50;19.67;61.08
70271;SHT31;57680;54.292;18.598;2023-09-30T09:54:16;20.02;59.53
70271;SHT31;57680;54.292;18.598;2023-09-30T09:56:44;20.25;59.27
70271;SHT31;57680;54.292;18.598;2023-09-30T09:59:11;20.75;57.38
70271;SHT31;57680;54.292;18.598;2023-09-30T10:01:37;20.28;58.06
70271;SHT31;57680;54.292;18.598;2023-09-30T10:04:02;19.60;60.06
70271;SHT31;57680;54.292;18.598;2023-09-30T10:06:28;19.05;61.70
70271;SHT31;57680;54.292;18.598;2023-09-30T10:08:54;18.58;61.22
70271;SHT31;57680;54.292;18.598;2023-09-30T10:11:20;18.29;61.97
70271;SHT31;57680;54.292;18.598;2023-09-30T10:13:58;18.21;63.00
70271;SHT31;57680;54.292;18.598;2023-09-30T10:19:17;18.50;64.36
70271;SHT31;57680;54.292;18.598;2023-09-30T10:24:42;18.43;65.31
70271;SHT31;57680;54.292;18.598;2023-09-30T10:29:57;19.23;63.28
70271;SHT31;57680;54.292;18.598;2023-09-30T10:32:22;19.46;61.70
70271;SHT31;57680;54.292;18.598;2023-09-30T10:34:48;19.94;63.84
70271;SHT31;57680;54.292;18.598;2023-09-30T10:37:21;19.80;62.30
70271;SHT31;57680;54.292;18.598;2023-09-30T10:40:28;19.90;61.16
70271;SHT31;57680;54.292;18.598;2023-09-30T10:42:54;20.21;59.67
70271;SHT31;57680;54.292;18.598;2023-09-30T10:45:46;20.66;58.09
70271;SHT31;57680;54.292;18.598;2023-09-30T10:50:57;20.15;60.88
70271;SHT31;57680;54.292;18.598;2023-09-30T10:53:22;20.02;60.12
70271;SHT31;57680;54.292;18.598;2023-09-30T10:55:55;19.91;61.68
70271;SHT31;57680;54.292;18.598;2023-09-30T10:58:21;19.53;61.77
70271;SHT31;57680;54.292;18.598;2023-09-30T11:00:55;19.70;60.94
70271;SHT31;57680;54.292;18.598;2023-09-30T11:03:22;19.56;61.81
70271;SHT31;57680;54.292;18.598;2023-09-30T11:05:48;19.59;61.89
70271;SHT31;57680;54.292;18.598;2023-09-30T11:08:15;19.59;62.58
70271;SHT31;57680;54.292;18.598;2023-09-30T11:10:51;19.32;63.86
70271;SHT31;57680;54.292;18.598;2023-09-30T11:13:20;18.99;64.01
70271;SHT31;57680;54.292;18.598;2023-09-30T11:15:46;18.58;65.15
70271;SHT31;57680;54.292;18.598;2023-09-30T11:18:18;18.50;65.93
70271;SHT31;57680;54.292;18.598;2023-09-30T11:20:44;18.40;65.60
70271;SHT31;57680;54.292;18.598;2023-09-30T11:23:10;18.65;65.17
70271;SHT31;57680;54.292;18.598;2023-09-30T11:25:36;18.71;66.61
70271;SHT31;57680;54.292;18.598;2023-09-30T11:28:17;18.84;64.96
70271;SHT31;57680;54.292;18.598;2023-09-30T11:30:56;19.11;64.35
70271;SHT31;57680;54.292;18.598;2023-09-30T11:33:22;19.43;62.19
70271;SHT31;57680;54.292;18.598;2023-09-30T11:36:04;19.73;61.23
70271;SHT31;57680;54.292;18.598;2023-09-30T11:38:30;19.81;61.00
70271;SHT31;57680;54.292;18.598;2023-09-30T11:41:00;19.81;60.62
70271;SHT31;57680;54.292;18.598;2023-09-30T11:43:25;19.49;59.78
70271;SHT31;57680;54.292;18.598;2023-09-30T11:45:51;19.50;60.27
70271;SHT31;57680;54.292;18.598;2023-09-30T11:48:17;19.67;58.92
70271;SHT31;57680;54.292;18.598;2023-09-30T11:50:47;19.80;59.45
70271;SHT31;57680;54.292;18.598;2023-09-30T11:53:19;20.00;58.83
70271;SHT31;57680;54.292;18.598;2023-09-30T11:55:44;19.98;58.00
70271;SHT31;57680;54.292;18.598;2023-09-30T11:58:09;19.88;59.29
70271;SHT31;57680;54.292;18.598;2023-09-30T12:00:35;19.82;57.78
70271;SHT31;57680;54.292;18.598;2023-09-30T12:03:00;19.92;57.54
70271;SHT31;57680;54.292;18.598;2023-09-30T12:05:25;19.92;57.58
70271;SHT31;57680;54.292;18.598;2023-09-30T12:07:51;19.67;55.64
70271;SHT31;57680;54.292;18.598;2023-09-30T12:10:16;19.71;56.33
70271;SHT31;57680;54.292;18.598;2023-09-30T12:12:41;19.88;57.09
70271;SHT31;57680;54.292;18.598;2023-09-30T12:15:07;19.70;58.01
70271;SHT31;57680;54.292;18.598;2023-09-30T12:17:32;19.40;59.54
70271;SHT31;57680;54.292;18.598;2023-09-30T12:19:57;19.45;60.65
70271;SHT31;57680;54.292;18.598;2023-09-30T12:22:23;19.40;59.47
70271;SHT31;57680;54.292;18.598;2023-09-30T12:24:48;19.30;58.50
70271;SHT31;57680;54.292;18.598;2023-09-30T12:27:13;19.40;58.93
70271;SHT31;57680;54.292;18.598;2023-09-30T12:29:39;19.43;58.48
70271;SHT31;57680;54.292;18.598;2023-09-30T12:32:04;19.36;58.76
70271;SHT31;57680;54.292;18.598;2023-09-30T12:34:29;19.24;56.54
70271;SHT31;57680;54.292;18.598;2023-09-30T12:36:54;19.27;57.72
70271;SHT31;57680;54.292;18.598;2023-09-30T12:39:20;19.26;58.17
70271;SHT31;57680;54.292;18.598;2023-09-30T12:41:45;19.36;57.86
70271;SHT31;57680;54.292;18.598;2023-09-30T12:44:11;19.33;57.52
70271;SHT31;57680;54.292;18.598;2023-09-30T12:46:36;19.29;58.27
70271;SHT31;57680;54.292;18.598;2023-09-30T12:49:03;19.13;58.92
70271;SHT31;57680;54.292;18.598;2023-09-30T12:51:29;18.84;58.37
70271;SHT31;57680;54.292;18.598;2023-09-30T12:53:54;18.60;60.03
70271;SHT31;57680;54.292;18.598;2023-09-30T12:56:19;18.43;61.12
70271;SHT31;57680;54.292;18.598;2023-09-30T12:58:45;18.41;62.29
70271;SHT31;57680;54.292;18.598;2023-09-30T13:01:10;18.44;62.98
70271;SHT31;57680;54.292;18.598;2023-09-30T13:03:35;18.31;62.46
70271;SHT31;57680;54.292;18.598;2023-09-30T13:06:01;18.34;62.99
70271;SHT31;57680;54.292;18.598;2023-09-30T13:08:27;18.50;62.96
70271;SHT31;57680;54.292;18.598;2023-09-30T13:10:52;18.58;62.12
70271;SHT31;57680;54.292;18.598;2023-09-30T13:13:17;18.65;63.69
70271;SHT31;57680;54.292;18.598;2023-09-30T13:15:42;18.48;61.09
70271;SHT31;57680;54.292;18.598;2023-09-30T13:18:08;18.26;62.02
70271;SHT31;57680;54.292;18.598;2023-09-30T13:20:33;18.44;62.34
70271;SHT31;57680;54.292;18.598;2023-09-30T13:22:58;18.52;63.19
70271;SHT31;57680;54.292;18.598;2023-09-30T13:25:24;18.47;62.75
70271;SHT31;57680;54.292;18.598;2023-09-30T13:27:49;18.55;63.75
70271;SHT31;57680;54.292;18.598;2023-09-30T13:30:14;18.61;63.70
70271;SHT31;57680;54.292;18.598;2023-09-30T13:32:40;18.79;64.09
70271;SHT31;57680;54.292;18.598;2023-09-30T13:35:06;18.57;63.90
70271;SHT31;57680;54.292;18.598;2023-09-30T13:37:32;18.43;64.36
70271;SHT31;57680;54.292;18.598;2023-09-30T13:39:57;18.44;64.08
70271;SHT31;57680;54.292;18.598;2023-09-30T13:42:23;18.45;64.01
70271;SHT31;57680;54.292;18.598;2023-09-30T13:44:48;18.51;63.13
70271;SHT31;57680;54.292;18.598;2023-09-30T13:47:13;18.45;63.62
70271;SHT31;57680;54.292;18.598;2023-09-30T13:49:39;18.34;64.00
70271;SHT31;57680;54.292;18.598;2023-09-30T13:52:04;18.30;64.06
70271;SHT31;57680;54.292;18.598;2023-09-30T13:54:29;18.24;63.74
70271;SHT31;57680;54.292;18.598;2023-09-30T13:56:54;18.18;63.90
70271;SHT31;57680;54.292;18.598;2023-09-30T13:59:20;18.12;62.78
70271;SHT31;57680;54.292;18.598;2023-09-30T14:01:45;17.93;62.84
70271;SHT31;57680;54.292;18.598;2023-09-30T14:04:10;17.78;63.90
70271;SHT31;57680;54.292;18.598;2023-09-30T14:06:35;17.63;64.00
70271;SHT31;57680;54.292;18.598;2023-09-30T14:09:01;17.68;64.41
70271;SHT31;57680;54.292;18.598;2023-09-30T14:11:26;17.59;65.16
70271;SHT31;57680;54.292;18.598;2023-09-30T14:13:51;17.61;64.56
70271;SHT31;57680;54.292;18.598;2023-09-30T14:16:17;17.61;64.75
70271;SHT31;57680;54.292;18.598;2023-09-30T14:18:42;17.63;65.32
70271;SHT31;57680;54.292;18.598;2023-09-30T14:21:07;17.73;64.78
70271;SHT31;57680;54.292;18.598;2023-09-30T14:23:33;17.71;65.72
70271;SHT31;57680;54.292;18.598;2023-09-30T14:25:58;17.72;66.41
70271;SHT31;57680;54.292;18.598;2023-09-30T14:28:23;17.75;66.72
70271;SHT31;57680;54.292;18.598;2023-09-30T14:30:49;17.72;66.91
70271;SHT31;57680;54.292;18.598;2023-09-30T14:33:14;17.76;66.08
70271;SHT31;57680;54.292;18.598;2023-09-30T14:35:39;17.89;66.36
70271;SHT31;57680;54.292;18.598;2023-09-30T14:38:04;17.86;65.89
70271;SHT31;57680;54.292;18.598;2023-09-30T14:40:30;17.90;66.17
70271;SHT31;57680;54.292;18.598;2023-09-30T14:42:55;17.89;64.91
70271;SHT31;57680;54.292;18.598;2023-09-30T14:45:21;17.68;65.23
70271;SHT31;57680;54.292;18.598;2023-09-30T14:47:46;17.55;66.66
70271;SHT31;57680;54.292;18.598;2023-09-30T14:50:11;17.42;66.11
70271;SHT31;57680;54.292;18.598;2023-09-30T14:52:36;17.42;66.56
70271;SHT31;57680;54.292;18.598;2023-09-30T14:55:02;17.36;67.26
70271;SHT31;57680;54.292;18.598;2023-09-30T14:57:27;17.35;68.25
70271;SHT31;57680;54.292;18.598;2023-09-30T14:59:52;17.39;67.45
70271;SHT31;57680;54.292;18.598;2023-09-30T15:02:18;17.35;67.64
70271;SHT31;57680;54.292;18.598;2023-09-30T15:04:43;17.32;67.97
70271;SHT31;57680;54.292;18.598;2023-09-30T15:07:08;17.28;68.07
70271;SHT31;57680;54.292;18.598;2023-09-30T15:09:34;17.24;67.56
70271;SHT31;57680;54.292;18.598;2023-09-30T15:11:59;17.25;68.17
70271;SHT31;57680;54.292;18.598;2023-09-30T15:14:24;17.25;67.62
70271;SHT31;57680;54.292;18.598;2023-09-30T15:16:49;17.17;68.25
70271;SHT31;57680;54.292;18.598;2023-09-30T15:19:15;17.17;68.47
70271;SHT31;57680;54.292;18.598;2023-09-30T15:21:40;17.15;69.29